sensor_id;sensor_type;location;lat;lon;timestamp;pressure;altitude;pressure_sealevel;temperature;humidity
54994;BME280;40891;47.242;8.648;2023-06-14T00:02:15;95673.44;;;18.84;38.24
54994;BME280;40891;47.242;8.648;2023-06-14T00:04:41;95668.25;;;18.88;37.05
54994;BME280;40891;47.242;8.648;2023-06-14T00:07:07;95670.50;;;18.95;37.17
54994;BME280;40891;47.242;8.648;2023-06-14T00:09:35;95672.84;;;18.91;37.80
54994;BME280;40891;47.242;8.648;2023-06-14T00:12:01;95669.09;;;18.83;37.60
54994;BME280;40891;47.242;8.648;2023-06-14T00:14:26;95670.72;;;18.73;37.82
54994;BME280;40891;47.242;8.648;2023-06-14T00:16:51;95662.72;;;18.77;37.03
54994;BME280;40891;47.242;8.648;2023-06-14T00:19:24;95674.88;;;18.67;37.76
54994;BME280;40891;47.242;8.648;2023-06-14T00:21:49;95671.28;;;18.66;38.22
54994;BME280;40891;47.242;8.648;2023-06-14T00:24:15;95670.78;;;18.62;37.01
54994;BME280;40891;47.242;8.648;2023-06-14T00:26:40;95659.81;;;18.59;37.44
54994;BME280;40891;47.242;8.648;2023-06-14T00:29:05;95662.16;;;18.55;37.78
54994;BME280;40891;47.242;8.648;2023-06-14T00:31:31;95658.09;;;18.50;37.96
54994;BME280;40891;47.242;8.648;2023-06-14T00:33:56;95665.00;;;18.49;38.48
54994;BME280;40891;47.242;8.648;2023-06-14T00:36:21;95664.28;;;18.38;38.20
54994;BME280;40891;47.242;8.648;2023-06-14T00:38:47;95661.44;;;18.43;38.02
54994;BME280;40891;47.242;8.648;2023-06-14T00:41:12;95661.50;;;18.32;39.40
54994;BME280;40891;47.242;8.648;2023-06-14T00:43:37;95662.06;;;18.25;39.69
54994;BME280;40891;47.242;8.648;2023-06-14T00:46:02;95663.34;;;18.24;40.00
54994;BME280;40891;47.242;8.648;2023-06-14T00:48:28;95661.91;;;18.06;40.72
54994;BME280;40891;47.242;8.648;2023-06-14T00:50:55;95666.81;;;18.00;40.63
54994;BME280;40891;47.242;8.648;2023-06-14T00:53:21;95665.81;;;17.92;40.85
54994;BME280;40891;47.242;8.648;2023-06-14T00:55:48;95667.63;;;17.84;41.75
54994;BME280;40891;47.242;8.648;2023-06-14T00:58:13;95665.38;;;17.77;42.92
54994;BME280;40891;47.242;8.648;2023-06-14T01:00:39;95660.75;;;17.80;42.75
54994;BME280;40891;47.242;8.648;2023-06-14T01:03:04;95659.50;;;17.75;42.62
54994;BME280;40891;47.242;8.648;2023-06-14T01:05:30;95664.63;;;17.77;41.93
54994;BME280;40891;47.242;8.648;2023-06-14T01:08:24;95665.16;;;17.70;43.25
54994;BME280;40891;47.242;8.648;2023-06-14T01:13:33;95669.53;;;17.59;42.59
54994;BME280;40891;47.242;8.648;2023-06-14T01:15:59;95666.25;;;17.55;43.52
54994;BME280;40891;47.242;8.648;2023-06-14T01:18:27;95664.44;;;17.47;43.49
54994;BME280;40891;47.242;8.648;2023-06-14T01:20:55;95662.13;;;17.51;43.02
54994;BME280;40891;47.242;8.648;2023-06-14T01:23:22;95654.97;;;17.50;43.58
54994;BME280;40891;47.242;8.648;2023-06-14T01:25:48;95656.28;;;17.43;44.62
54994;BME280;40891;47.242;8.648;2023-06-14T01:28:18;95669.09;;;17.33;45.08
54994;BME280;40891;47.242;8.648;2023-06-14T01:30:47;95657.88;;;17.22;45.04
54994;BME280;40891;47.242;8.648;2023-06-14T01:33:21;95662.19;;;17.23;45.31
54994;BME280;40891;47.242;8.648;2023-06-14T01:35:50;95659.63;;;17.25;45.19
54994;BME280;40891;47.242;8.648;2023-06-14T01:38:18;95663.75;;;17.24;45.32
54994;BME280;40891;47.242;8.648;2023-06-14T01:40:44;95662.19;;;17.29;45.64
54994;BME280;40891;47.242;8.648;2023-06-14T01:43:11;95656.34;;;17.21;45.10
54994;BME280;40891;47.242;8.648;2023-06-14T01:45:40;95662.72;;;17.16;45.82
54994;BME280;40891;47.242;8.648;2023-06-14T01:48:05;95661.47;;;17.17;44.79
54994;BME280;40891;47.242;8.648;2023-06-14T01:50:31;95668.34;;;17.16;44.11
54994;BME280;40891;47.242;8.648;2023-06-14T01:52:57;95665.53;;;17.22;45.13
54994;BME280;40891;47.242;8.648;2023-06-14T01:55:22;95658.91;;;17.25;44.19
54994;BME280;40891;47.242;8.648;2023-06-14T01:57:50;95656.09;;;17.19;44.48
54994;BME280;40891;47.242;8.648;2023-06-14T02:00:15;95660.19;;;17.13;44.29
54994;BME280;40891;47.242;8.648;2023-06-14T02:02:41;95662.00;;;17.10;42.74
54994;BME280;40891;47.242;8.648;2023-06-14T02:05:06;95655.31;;;17.13;42.75
54994;BME280;40891;47.242;8.648;2023-06-14T02:07:32;95652.50;;;17.13;43.91
54994;BME280;40891;47.242;8.648;2023-06-14T02:09:58;95653.31;;;17.08;43.26
54994;BME280;40891;47.242;8.648;2023-06-14T02:12:24;95655.84;;;17.06;43.42
54994;BME280;40891;47.242;8.648;2023-06-14T02:14:49;95662.00;;;17.05;44.17
54994;BME280;40891;47.242;8.648;2023-06-14T02:17:15;95663.28;;;17.04;44.95
54994;BME280;40891;47.242;8.648;2023-06-14T02:19:41;95661.47;;;17.06;43.94
54994;BME280;40891;47.242;8.648;2023-06-14T02:22:07;95664.31;;;17.00;44.03
54994;BME280;40891;47.242;8.648;2023-06-14T02:24:32;95660.22;;;16.96;44.21
54994;BME280;40891;47.242;8.648;2023-06-14T02:26:58;95666.59;;;16.96;44.99
54994;BME280;40891;47.242;8.648;2023-06-14T02:29:23;95664.28;;;16.89;43.96
54994;BME280;40891;47.242;8.648;2023-06-14T02:31:48;95666.59;;;16.91;44.23
54994;BME280;40891;47.242;8.648;2023-06-14T02:34:14;95671.97;;;16.83;44.96
54994;BME280;40891;47.242;8.648;2023-06-14T02:36:42;95670.44;;;16.82;44.44
54994;BME280;40891;47.242;8.648;2023-06-14T02:39:08;95664.81;;;16.88;43.81
54994;BME280;40891;47.242;8.648;2023-06-14T02:41:37;95666.34;;;16.89;44.47
54994;BME280;40891;47.242;8.648;2023-06-14T02:44:03;95671.19;;;16.83;44.50
54994;BME280;40891;47.242;8.648;2023-06-14T02:46:28;95669.94;;;16.84;44.80
54994;BME280;40891;47.242;8.648;2023-06-14T02:48:53;95675.56;;;16.84;45.15
54994;BME280;40891;47.242;8.648;2023-06-14T02:51:19;95672.22;;;16.69;45.06
54994;BME280;40891;47.242;8.648;2023-06-14T02:53:44;95675.53;;;16.73;44.78
54994;BME280;40891;47.242;8.648;2023-06-14T02:56:10;95678.38;;;16.67;45.55
54994;BME280;40891;47.242;8.648;2023-06-14T02:58:37;95672.47;;;16.60;45.62
54994;BME280;40891;47.242;8.648;2023-06-14T03:01:04;95676.31;;;16.62;46.04
54994;BME280;40891;47.242;8.648;2023-06-14T03:03:30;95687.53;;;16.57;46.52
54994;BME280;40891;47.242;8.648;2023-06-14T03:05:56;95689.31;;;16.54;47.13
54994;BME280;40891;47.242;8.648;2023-06-14T03:08:22;95683.41;;;16.41;47.31
54994;BME280;40891;47.242;8.648;2023-06-14T03:10:52;95689.03;;;16.41;47.49
54994;BME280;40891;47.242;8.648;2023-06-14T03:13:18;95689.81;;;16.42;46.83
54994;BME280;40891;47.242;8.648;2023-06-14T03:15:46;95704.81;;;16.27;47.74
54994;BME280;40891;47.242;8.648;2023-06-14T03:18:13;95701.22;;;16.21;47.65
54994;BME280;40891;47.242;8.648;2023-06-14T03:20:40;95705.03;;;16.18;47.81
54994;BME280;40891;47.242;8.648;2023-06-14T03:23:06;95707.59;;;16.11;47.43
54994;BME280;40891;47.242;8.648;2023-06-14T03:25:32;95707.06;;;16.12;47.90
54994;BME280;40891;47.242;8.648;2023-06-14T03:28:03;95708.34;;;16.11;48.35
54994;BME280;40891;47.242;8.648;2023-06-14T03:30:30;95707.03;;;16.07;48.25
54994;BME280;40891;47.242;8.648;2023-06-14T03:32:56;95706.03;;;15.99;48.98
54994;BME280;40891;47.242;8.648;2023-06-14T03:35:22;95707.03;;;16.01;48.63
54994;BME280;40891;47.242;8.648;2023-06-14T03:37:47;95715.19;;;15.99;48.47
54994;BME280;40891;47.242;8.648;2023-06-14T03:40:17;95725.63;;;15.93;48.74
54994;BME280;40891;47.242;8.648;2023-06-14T03:42:43;95718.50;;;15.98;48.16
54994;BME280;40891;47.242;8.648;2023-06-14T03:45:08;95718.00;;;15.99;48.52
54994;BME280;40891;47.242;8.648;2023-06-14T03:47:34;95727.16;;;15.94;48.28
54994;BME280;40891;47.242;8.648;2023-06-14T03:50:00;95723.63;;;15.99;47.84
54994;BME280;40891;47.242;8.648;2023-06-14T03:52:26;95728.41;;;15.93;48.13
54994;BME280;40891;47.242;8.648;2023-06-14T03:54:52;95727.16;;;15.94;47.51
54994;BME280;40891;47.242;8.648;2023-06-14T03:57:17;95728.19;;;15.97;47.17
54994;BME280;40891;47.242;8.648;2023-06-14T03:59:43;95723.34;;;16.03;47.03
54994;BME280;40891;47.242;8.648;2023-06-14T04:02:08;95722.84;;;15.99;47.42
54994;BME280;40891;47.242;8.648;2023-06-14T04:04:40;95733.03;;;15.96;47.08
54994;BME280;40891;47.242;8.648;2023-06-14T04:07:12;95745.28;;;15.99;46.68
54994;BME280;40891;47.242;8.648;2023-06-14T04:09:38;95741.44;;;15.96;47.07
54994;BME280;40891;47.242;8.648;2023-06-14T04:12:04;95747.81;;;16.02;47.19
54994;BME280;40891;47.242;8.648;2023-06-14T04:14:29;95740.72;;;16.12;46.62
54994;BME280;40891;47.242;8.648;2023-06-14T04:16:56;95739.25;;;16.22;46.45
54994;BME280;40891;47.242;8.648;2023-06-14T04:19:21;95753.00;;;16.26;46.74
54994;BME280;40891;47.242;8.648;2023-06-14T04:21:46;95758.88;;;16.22;46.67
54994;BME280;40891;47.242;8.648;2023-06-14T04:24:12;95762.97;;;16.27;47.06
54994;BME280;40891;47.242;8.648;2023-06-14T04:26:42;95751.75;;;16.27;47.51
54994;BME280;40891;47.242;8.648;2023-06-14T04:29:09;95748.97;;;16.32;47.32
54994;BME280;40891;47.242;8.648;2023-06-14T04:31:42;95754.31;;;16.36;47.67
54994;BME280;40891;47.242;8.648;2023-06-14T04:34:08;95765.50;;;16.30;47.70
54994;BME280;40891;47.242;8.648;2023-06-14T04:36:34;95770.38;;;16.30;48.95
54994;BME280;40891;47.242;8.648;2023-06-14T04:39:02;95758.13;;;16.33;49.16
54994;BME280;40891;47.242;8.648;2023-06-14T04:41:29;95772.94;;;16.33;49.56
54994;BME280;40891;47.242;8.648;2023-06-14T04:43:55;95765.03;;;16.38;49.27
54994;BME280;40891;47.242;8.648;2023-06-14T04:46:22;95770.13;;;16.45;49.21
54994;BME280;40891;47.242;8.648;2023-06-14T04:48:47;95769.13;;;16.48;48.93
54994;BME280;40891;47.242;8.648;2023-06-14T04:51:15;95774.75;;;16.48;48.35
54994;BME280;40891;47.242;8.648;2023-06-14T04:53:41;95781.69;;;16.58;49.05
54994;BME280;40891;47.242;8.648;2023-06-14T04:56:07;95784.00;;;16.65;48.75
54994;BME280;40891;47.242;8.648;2023-06-14T04:58:32;95779.66;;;16.64;48.77
54994;BME280;40891;47.242;8.648;2023-06-14T05:00:57;95779.41;;;16.73;48.26
54994;BME280;40891;47.242;8.648;2023-06-14T05:03:24;95783.75;;;16.68;49.20
54994;BME280;40891;47.242;8.648;2023-06-14T05:05:50;95787.84;;;16.73;48.80
54994;BME280;40891;47.242;8.648;2023-06-14T05:08:16;95788.38;;;16.77;50.72
54994;BME280;40891;47.242;8.648;2023-06-14T05:10:41;95789.91;;;16.83;50.32
54994;BME280;40891;47.242;8.648;2023-06-14T05:13:06;95780.22;;;16.90;50.70
54994;BME280;40891;47.242;8.648;2023-06-14T05:15:32;95788.66;;;16.95;50.97
54994;BME280;40891;47.242;8.648;2023-06-14T05:17:57;95789.94;;;17.06;50.65
54994;BME280;40891;47.242;8.648;2023-06-14T05:20:23;95792.97;;;17.13;49.01
54994;BME280;40891;47.242;8.648;2023-06-14T05:22:54;95795.81;;;17.19;50.46
54994;BME280;40891;47.242;8.648;2023-06-14T05:25:22;95792.47;;;17.26;50.90
54994;BME280;40891;47.242;8.648;2023-06-14T05:27:47;95790.69;;;17.28;49.87
54994;BME280;40891;47.242;8.648;2023-06-14T05:30:14;95793.75;;;17.36;49.86
54994;BME280;40891;47.242;8.648;2023-06-14T05:32:40;95794.00;;;17.32;47.59
54994;BME280;40891;47.242;8.648;2023-06-14T05:35:05;95796.81;;;17.43;49.43
54994;BME280;40891;47.242;8.648;2023-06-14T05:37:31;95803.19;;;17.44;48.93
54994;BME280;40891;47.242;8.648;2023-06-14T05:39:56;95807.81;;;17.41;48.58
54994;BME280;40891;47.242;8.648;2023-06-14T05:42:22;95805.50;;;17.45;48.57
54994;BME280;40891;47.242;8.648;2023-06-14T05:44:47;95810.38;;;17.56;48.61
54994;BME280;40891;47.242;8.648;2023-06-14T05:47:12;95808.81;;;17.60;48.26
54994;BME280;40891;47.242;8.648;2023-06-14T05:49:38;95810.63;;;17.52;47.72
54994;BME280;40891;47.242;8.648;2023-06-14T05:52:03;95805.75;;;17.64;48.65
54994;BME280;40891;47.242;8.648;2023-06-14T05:54:28;95803.69;;;17.70;47.75
54994;BME280;40891;47.242;8.648;2023-06-14T05:56:54;95811.88;;;17.74;47.47
54994;BME280;40891;47.242;8.648;2023-06-14T05:59:19;95802.91;;;17.81;47.21
54994;BME280;40891;47.242;8.648;2023-06-14T06:01:45;95805.22;;;17.82;47.68
54994;BME280;40891;47.242;8.648;2023-06-14T06:04:11;95803.41;;;17.85;47.78
54994;BME280;40891;47.242;8.648;2023-06-14T06:06:36;95804.16;;;17.96;47.50
54994;BME280;40891;47.242;8.648;2023-06-14T06:09:02;95818.22;;;18.02;46.37
54994;BME280;40891;47.242;8.648;2023-06-14T06:11:27;95806.44;;;18.03;46.19
54994;BME280;40891;47.242;8.648;2023-06-14T06:13:52;95822.28;;;18.01;46.20
54994;BME280;40891;47.242;8.648;2023-06-14T06:16:18;95814.91;;;17.98;45.54
54994;BME280;40891;47.242;8.648;2023-06-14T06:18:43;95820.25;;;18.07;44.96
54994;BME280;40891;47.242;8.648;2023-06-14T06:21:08;95819.47;;;18.12;45.94
54994;BME280;40891;47.242;8.648;2023-06-14T06:23:34;95828.88;;;18.20;46.56
54994;BME280;40891;47.242;8.648;2023-06-14T06:25:59;95818.63;;;18.28;45.87
54994;BME280;40891;47.242;8.648;2023-06-14T06:28:24;95830.66;;;18.28;45.33
54994;BME280;40891;47.242;8.648;2023-06-14T06:30:50;95831.69;;;18.25;45.22
54994;BME280;40891;47.242;8.648;2023-06-14T06:33:15;95830.38;;;18.32;45.18
54994;BME280;40891;47.242;8.648;2023-06-14T06:35:41;95829.06;;;18.38;45.33
54994;BME280;40891;47.242;8.648;2023-06-14T06:38:07;95831.88;;;18.44;45.50
54994;BME280;40891;47.242;8.648;2023-06-14T06:40:33;95832.91;;;18.52;45.43
54994;BME280;40891;47.242;8.648;2023-06-14T06:42:59;95831.81;;;18.61;46.07
54994;BME280;40891;47.242;8.648;2023-06-14T06:45:24;95829.22;;;18.68;46.22
54994;BME280;40891;47.242;8.648;2023-06-14T06:47:50;95837.38;;;18.77;46.07
54994;BME280;40891;47.242;8.648;2023-06-14T06:50:15;95828.38;;;18.84;45.73
54994;BME280;40891;47.242;8.648;2023-06-14T06:52:40;95838.28;;;18.96;45.91
54994;BME280;40891;47.242;8.648;2023-06-14T06:55:06;95835.84;;;19.17;45.32
54994;BME280;40891;47.242;8.648;2023-06-14T06:57:32;95830.75;;;19.16;44.66
54994;BME280;40891;47.242;8.648;2023-06-14T06:59:57;95841.59;;;19.00;44.87
54994;BME280;40891;47.242;8.648;2023-06-14T07:02:22;95847.16;;;19.12;45.27
54994;BME280;40891;47.242;8.648;2023-06-14T07:04:48;95840.44;;;19.20;46.21
54994;BME280;40891;47.242;8.648;2023-06-14T07:07:13;95849.09;;;19.28;45.10
54994;BME280;40891;47.242;8.648;2023-06-14T07:09:39;95850.13;;;19.30;43.76
54994;BME280;40891;47.242;8.648;2023-06-14T07:12:06;95847.78;;;19.29;43.75
54994;BME280;40891;47.242;8.648;2023-06-14T07:14:31;95856.22;;;19.34;45.68
54994;BME280;40891;47.242;8.648;2023-06-14T07:16:57;95858.13;;;19.21;43.82
54994;BME280;40891;47.242;8.648;2023-06-14T07:19:22;95852.44;;;19.26;43.94
54994;BME280;40891;47.242;8.648;2023-06-14T07:21:48;95853.97;;;19.27;43.56
54994;BME280;40891;47.242;8.648;2023-06-14T07:24:13;95860.09;;;19.31;44.97
54994;BME280;40891;47.242;8.648;2023-06-14T07:26:39;95861.06;;;19.45;44.63
54994;BME280;40891;47.242;8.648;2023-06-14T07:29:04;95860.16;;;19.61;42.74
54994;BME280;40891;47.242;8.648;2023-06-14T07:31:29;95863.06;;;19.80;43.17
54994;BME280;40891;47.242;8.648;2023-06-14T07:33:55;95858.47;;;19.77;43.08
54994;BME280;40891;47.242;8.648;2023-06-14T07:36:20;95858.34;;;19.88;43.29
54994;BME280;40891;47.242;8.648;2023-06-14T07:38:45;95855.84;;;19.84;41.00
54994;BME280;40891;47.242;8.648;2023-06-14T07:41:11;95862.69;;;19.94;41.80
54994;BME280;40891;47.242;8.648;2023-06-14T07:43:36;95859.50;;;20.03;41.57
54994;BME280;40891;47.242;8.648;2023-06-14T07:46:01;95855.91;;;20.03;40.76
54994;BME280;40891;47.242;8.648;2023-06-14T07:48:27;95857.97;;;20.02;41.20
54994;BME280;40891;47.242;8.648;2023-06-14T07:50:53;95860.19;;;20.09;42.13
54994;BME280;40891;47.242;8.648;2023-06-14T07:53:18;95859.06;;;20.23;42.48
54994;BME280;40891;47.242;8.648;2023-06-14T07:55:43;95858.13;;;20.40;40.40
54994;BME280;40891;47.242;8.648;2023-06-14T07:58:09;95857.38;;;20.58;41.17
54994;BME280;40891;47.242;8.648;2023-06-14T08:00:36;95856.72;;;20.70;40.75
54994;BME280;40891;47.242;8.648;2023-06-14T08:03:01;95851.22;;;20.78;39.48
54994;BME280;40891;47.242;8.648;2023-06-14T08:05:27;95861.53;;;20.75;38.95
54994;BME280;40891;47.242;8.648;2023-06-14T08:07:52;95853.75;;;20.81;41.18
54994;BME280;40891;47.242;8.648;2023-06-14T08:10:18;95853.53;;;20.98;42.14
54994;BME280;40891;47.242;8.648;2023-06-14T08:12:43;95856.00;;;21.07;40.54
54994;BME280;40891;47.242;8.648;2023-06-14T08:15:09;95855.59;;;21.16;40.95
54994;BME280;40891;47.242;8.648;2023-06-14T08:17:35;95857.59;;;21.21;40.23
54994;BME280;40891;47.242;8.648;2023-06-14T08:20:00;95855.34;;;21.33;41.09
54994;BME280;40891;47.242;8.648;2023-06-14T08:22:26;95856.72;;;21.45;39.90
54994;BME280;40891;47.242;8.648;2023-06-14T08:24:53;95854.88;;;21.47;39.97
54994;BME280;40891;47.242;8.648;2023-06-14T08:27:19;95854.81;;;21.66;39.38
54994;BME280;40891;47.242;8.648;2023-06-14T08:29:45;95847.25;;;21.74;41.70
54994;BME280;40891;47.242;8.648;2023-06-14T08:32:10;95852.41;;;21.89;41.64
54994;BME280;40891;47.242;8.648;2023-06-14T08:34:36;95846.13;;;21.96;39.26
54994;BME280;40891;47.242;8.648;2023-06-14T08:37:01;95849.41;;;22.13;40.13
54994;BME280;40891;47.242;8.648;2023-06-14T08:39:27;95847.13;;;22.11;39.42
54994;BME280;40891;47.242;8.648;2023-06-14T08:41:52;95847.97;;;22.06;38.51
54994;BME280;40891;47.242;8.648;2023-06-14T08:44:19;95850.50;;;22.10;38.36
54994;BME280;40891;47.242;8.648;2023-06-14T08:46:45;95855.72;;;22.06;38.51
54994;BME280;40891;47.242;8.648;2023-06-14T08:49:11;95852.22;;;22.13;37.44
54994;BME280;40891;47.242;8.648;2023-06-14T08:51:37;95846.94;;;22.35;39.48
54994;BME280;40891;47.242;8.648;2023-06-14T08:54:03;95847.91;;;22.38;38.56
54994;BME280;40891;47.242;8.648;2023-06-14T08:56:30;95847.88;;;22.25;36.96
54994;BME280;40891;47.242;8.648;2023-06-14T08:58:57;95844.44;;;22.45;40.12
54994;BME280;40891;47.242;8.648;2023-06-14T09:01:23;95840.38;;;22.67;37.74
54994;BME280;40891;47.242;8.648;2023-06-14T09:03:50;95848.78;;;22.72;34.95
54994;BME280;40891;47.242;8.648;2023-06-14T09:06:16;95847.69;;;22.75;34.60
54994;BME280;40891;47.242;8.648;2023-06-14T09:08:45;95849.09;;;22.82;35.96
54994;BME280;40891;47.242;8.648;2023-06-14T09:11:13;95847.34;;;22.79;35.67
54994;BME280;40891;47.242;8.648;2023-06-14T09:13:39;95848.78;;;22.72;34.64
54994;BME280;40891;47.242;8.648;2023-06-14T09:16:06;95842.47;;;22.66;33.42
54994;BME280;40891;47.242;8.648;2023-06-14T09:18:39;95834.78;;;23.00;35.43
54994;BME280;40891;47.242;8.648;2023-06-14T09:21:07;95835.78;;;23.24;35.26
54994;BME280;40891;47.242;8.648;2023-06-14T09:23:41;95839.44;;;23.45;33.31
54994;BME280;40891;47.242;8.648;2023-06-14T09:26:17;95843.56;;;23.78;34.55
54994;BME280;40891;47.242;8.648;2023-06-14T09:28:45;95839.13;;;23.69;31.08
54994;BME280;40891;47.242;8.648;2023-06-14T09:31:13;95840.28;;;23.74;30.81
54994;BME280;40891;47.242;8.648;2023-06-14T09:33:41;95828.66;;;23.64;32.07
54994;BME280;40891;47.242;8.648;2023-06-14T09:36:12;95826.44;;;23.91;34.33
54994;BME280;40891;47.242;8.648;2023-06-14T09:38:40;95827.28;;;24.19;33.35
54994;BME280;40891;47.242;8.648;2023-06-14T09:41:05;95830.97;;;24.35;30.70
54994;BME280;40891;47.242;8.648;2023-06-14T09:43:31;95837.72;;;24.53;31.25
54994;BME280;40891;47.242;8.648;2023-06-14T09:46:00;95839.47;;;24.56;30.50
54994;BME280;40891;47.242;8.648;2023-06-14T09:48:26;95835.56;;;24.74;29.90
54994;BME280;40891;47.242;8.648;2023-06-14T09:50:51;95838.16;;;24.64;28.23
54994;BME280;40891;47.242;8.648;2023-06-14T09:53:21;95847.28;;;24.63;28.67
54994;BME280;40891;47.242;8.648;2023-06-14T09:55:49;95844.38;;;24.83;29.06
54994;BME280;40891;47.242;8.648;2023-06-14T09:58:16;95842.38;;;25.07;30.17
54994;BME280;40891;47.242;8.648;2023-06-14T10:00:43;95846.47;;;25.34;28.50
54994;BME280;40891;47.242;8.648;2023-06-14T10:03:21;95834.63;;;25.73;29.70
54994;BME280;40891;47.242;8.648;2023-06-14T10:05:50;95829.88;;;25.98;28.17
54994;BME280;40891;47.242;8.648;2023-06-14T10:08:18;95829.53;;;26.17;26.63
54994;BME280;40891;47.242;8.648;2023-06-14T10:10:44;95828.38;;;26.27;29.33
54994;BME280;40891;47.242;8.648;2023-06-14T10:13:11;95827.97;;;26.46;27.20
54994;BME280;40891;47.242;8.648;2023-06-14T10:16:07;95821.84;;;26.72;27.46
54994;BME280;40891;47.242;8.648;2023-06-14T10:19:20;95814.75;;;26.96;26.43
54994;BME280;40891;47.242;8.648;2023-06-14T10:22:01;95821.50;;;27.23;26.20
54994;BME280;40891;47.242;8.648;2023-06-14T10:24:32;95822.69;;;27.52;26.31
54994;BME280;40891;47.242;8.648;2023-06-14T10:26:58;95807.38;;;27.65;26.93
54994;BME280;40891;47.242;8.648;2023-06-14T10:29:28;95815.59;;;27.86;27.36
54994;BME280;40891;47.242;8.648;2023-06-14T10:31:58;95810.47;;;28.09;26.87
54994;BME280;40891;47.242;8.648;2023-06-14T10:34:26;95809.97;;;28.27;25.59
54994;BME280;40891;47.242;8.648;2023-06-14T10:37:12;95803.56;;;28.54;26.87
54994;BME280;40891;47.242;8.648;2023-06-14T10:39:44;95803.47;;;28.86;25.70
54994;BME280;40891;47.242;8.648;2023-06-14T10:42:11;95809.50;;;29.07;26.16
54994;BME280;40891;47.242;8.648;2023-06-14T10:47:06;95811.94;;;29.28;25.65
54994;BME280;40891;47.242;8.648;2023-06-14T10:49:42;95807.00;;;29.55;24.68
54994;BME280;40891;47.242;8.648;2023-06-14T10:52:13;95814.25;;;29.83;24.00
54994;BME280;40891;47.242;8.648;2023-06-14T10:55:13;95805.22;;;29.96;22.70
54994;BME280;40891;47.242;8.648;2023-06-14T10:57:55;95811.34;;;30.09;22.18
54994;BME280;40891;47.242;8.648;2023-06-14T11:00:24;95803.72;;;30.31;21.62
54994;BME280;40891;47.242;8.648;2023-06-14T11:03:10;95800.81;;;30.21;22.39
54994;BME280;40891;47.242;8.648;2023-06-14T11:05:54;95803.09;;;30.33;23.55
54994;BME280;40891;47.242;8.648;2023-06-14T11:08:30;95796.00;;;30.24;22.80
54994;BME280;40891;47.242;8.648;2023-06-14T11:11:06;95793.94;;;30.44;23.78
54994;BME280;40891;47.242;8.648;2023-06-14T11:13:31;95794.59;;;30.80;22.99
54994;BME280;40891;47.242;8.648;2023-06-14T11:15:56;95792.97;;;31.16;22.37
54994;BME280;40891;47.242;8.648;2023-06-14T11:18:23;95796.09;;;31.39;22.69
54994;BME280;40891;47.242;8.648;2023-06-14T11:20:50;95783.06;;;31.57;20.60
54994;BME280;40891;47.242;8.648;2023-06-14T11:23:15;95789.69;;;31.69;20.65
54994;BME280;40891;47.242;8.648;2023-06-14T11:25:41;95794.66;;;31.78;21.14
54994;BME280;40891;47.242;8.648;2023-06-14T11:28:06;95790.34;;;32.08;20.91
54994;BME280;40891;47.242;8.648;2023-06-14T11:30:32;95795.66;;;32.33;21.17
54994;BME280;40891;47.242;8.648;2023-06-14T11:32:57;95788.31;;;32.51;18.44
54994;BME280;40891;47.242;8.648;2023-06-14T11:35:23;95790.25;;;32.58;19.77
54994;BME280;40891;47.242;8.648;2023-06-14T11:37:53;95777.00;;;32.64;19.04
54994;BME280;40891;47.242;8.648;2023-06-14T11:40:19;95776.25;;;32.64;17.96
54994;BME280;40891;47.242;8.648;2023-06-14T11:42:44;95782.81;;;32.55;19.75
54994;BME280;40891;47.242;8.648;2023-06-14T11:45:10;95774.53;;;33.13;20.08
54994;BME280;40891;47.242;8.648;2023-06-14T11:47:37;95784.19;;;33.17;19.26
54994;BME280;40891;47.242;8.648;2023-06-14T11:50:07;95781.59;;;33.66;18.42
54994;BME280;40891;47.242;8.648;2023-06-14T11:52:33;95775.84;;;33.77;18.53
54994;BME280;40891;47.242;8.648;2023-06-14T11:54:59;95779.34;;;33.64;19.05
54994;BME280;40891;47.242;8.648;2023-06-14T11:57:25;95779.91;;;33.84;19.39
54994;BME280;40891;47.242;8.648;2023-06-14T11:59:51;95780.53;;;34.05;18.22
54994;BME280;40891;47.242;8.648;2023-06-14T12:02:18;95773.28;;;34.16;18.56
54994;BME280;40891;47.242;8.648;2023-06-14T12:04:46;95774.25;;;34.55;18.37
54994;BME280;40891;47.242;8.648;2023-06-14T12:07:13;95775.25;;;34.48;17.47
54994;BME280;40891;47.242;8.648;2023-06-14T12:12:26;95774.38;;;34.57;16.01
54994;BME280;40891;47.242;8.648;2023-06-14T12:14:52;95766.47;;;34.58;16.21
54994;BME280;40891;47.242;8.648;2023-06-14T12:17:18;95765.16;;;34.84;18.01
54994;BME280;40891;47.242;8.648;2023-06-14T12:19:49;95760.47;;;34.42;17.06
54994;BME280;40891;47.242;8.648;2023-06-14T12:22:15;95764.59;;;34.39;17.84
54994;BME280;40891;47.242;8.648;2023-06-14T12:24:44;95764.25;;;34.93;18.37
54994;BME280;40891;47.242;8.648;2023-06-14T12:27:10;95761.97;;;35.03;19.90
54994;BME280;40891;47.242;8.648;2023-06-14T12:29:40;95757.56;;;35.39;16.89
54994;BME280;40891;47.242;8.648;2023-06-14T12:32:06;95759.38;;;35.71;16.83
54994;BME280;40891;47.242;8.648;2023-06-14T12:34:31;95758.78;;;36.39;15.65
54994;BME280;40891;47.242;8.648;2023-06-14T12:36:57;95762.22;;;36.62;15.93
54994;BME280;40891;47.242;8.648;2023-06-14T12:39:22;95754.41;;;37.21;15.94
54994;BME280;40891;47.242;8.648;2023-06-14T12:41:48;95765.66;;;37.87;14.67
54994;BME280;40891;47.242;8.648;2023-06-14T12:44:14;95761.84;;;38.45;14.14
54994;BME280;40891;47.242;8.648;2023-06-14T12:46:43;95765.31;;;38.91;14.37
54994;BME280;40891;47.242;8.648;2023-06-14T12:49:12;95765.16;;;39.55;13.71
54994;BME280;40891;47.242;8.648;2023-06-14T12:51:38;95764.91;;;39.49;13.88
54994;BME280;40891;47.242;8.648;2023-06-14T12:54:04;95768.41;;;39.81;12.88
54994;BME280;40891;47.242;8.648;2023-06-14T12:56:30;95766.47;;;39.17;12.52
54994;BME280;40891;47.242;8.648;2023-06-14T12:58:55;95760.00;;;38.85;13.19
54994;BME280;40891;47.242;8.648;2023-06-14T13:01:20;95752.84;;;39.92;13.36
54994;BME280;40891;47.242;8.648;2023-06-14T13:03:47;95758.78;;;40.51;12.90
54994;BME280;40891;47.242;8.648;2023-06-14T13:06:12;95758.31;;;40.98;12.37
54994;BME280;40891;47.242;8.648;2023-06-14T13:08:38;95755.75;;;41.73;11.37